KZZV/ZZV METAR and TAF weather

Enter ICAO airport designator
Station Type Date Time Source
KZZV METAR 2021/09/23 17:37 UTC NOAA

KZZV 231737Z AUTO 20008KT 10SM SCT028 BKN040 OVC048 13/09 A2990 RMK AO2 T01280089


Station Type Date Time Source
KZZV Decoded METAR 2021/09/23 17:37 UTC NOAA

ZANESVILLE MUNICIPAL AIRPORT , OH, United States (KZZV) 39-57N 81-54W 268M
Sep 23, 2021 - 01:37 PM EDT / 2021.09.23 1737 UTC
Wind: from the SSW (200 degrees) at 9 MPH (8 KT):0
Visibility: 10 mile(s):0
Sky conditions: overcast
Temperature: 55.0 F (12.8 C)
Dew Point: 48.0 F (8.9 C)
Relative Humidity: 77%
Pressure (altimeter): 29.9 in. Hg (1012 hPa)
ob: KZZV 231737Z AUTO 20008KT 10SM SCT028 BKN040 OVC048 13/09 A2990 RMK AO2 T01280089
cycle: 17

Station Type Date Time Source
KZZV TAF 2021/09/23 18:42 UTC NOAA

TAF KZZV 231738Z 2318/2418 22010KT P6SM SCT025 BKN035
FM232300 23010KT P6SM BKN040
FM240300 21007KT P6SM SKC

Example: see airport list